sensor_id;sensor_type;location;lat;lon;timestamp;temperature;humidity
38784;DHT22;24531;45.502;12.238;2023-02-15T00:00:14;8.40;92.30
38784;DHT22;24531;45.502;12.238;2023-02-15T00:02:40;8.40;92.20
38784;DHT22;24531;45.502;12.238;2023-02-15T00:05:06;8.40;92.20
38784;DHT22;24531;45.502;12.238;2023-02-15T00:07:32;8.30;92.30
38784;DHT22;24531;45.502;12.238;2023-02-15T00:09:58;8.30;92.20
38784;DHT22;24531;45.502;12.238;2023-02-15T00:12:23;8.30;92.20
38784;DHT22;24531;45.502;12.238;2023-02-15T00:14:49;8.20;92.20
38784;DHT22;24531;45.502;12.238;2023-02-15T00:17:15;8.20;92.30
38784;DHT22;24531;45.502;12.238;2023-02-15T00:19:40;8.10;92.40
38784;DHT22;24531;45.502;12.238;2023-02-15T00:22:06;8.20;92.40
38784;DHT22;24531;45.502;12.238;2023-02-15T00:24:32;8.20;92.30
38784;DHT22;24531;45.502;12.238;2023-02-15T00:26:58;8.20;92.20
38784;DHT22;24531;45.502;12.238;2023-02-15T00:29:24;8.10;92.20
38784;DHT22;24531;45.502;12.238;2023-02-15T00:31:49;8.10;92.30
38784;DHT22;24531;45.502;12.238;2023-02-15T00:34:21;8.10;92.20
38784;DHT22;24531;45.502;12.238;2023-02-15T00:36:47;8.10;92.20
38784;DHT22;24531;45.502;12.238;2023-02-15T00:39:13;8.10;92.10
38784;DHT22;24531;45.502;12.238;2023-02-15T00:41:40;8.00;92.10
38784;DHT22;24531;45.502;12.238;2023-02-15T00:44:06;8.00;92.20
38784;DHT22;24531;45.502;12.238;2023-02-15T00:46:32;8.00;92.10
38784;DHT22;24531;45.502;12.238;2023-02-15T00:48:57;8.00;92.10
38784;DHT22;24531;45.502;12.238;2023-02-15T00:51:24;8.00;92.20
38784;DHT22;24531;45.502;12.238;2023-02-15T00:53:49;8.00;92.10
38784;DHT22;24531;45.502;12.238;2023-02-15T00:56:15;8.00;92.10
38784;DHT22;24531;45.502;12.238;2023-02-15T00:58:41;8.00;92.10
38784;DHT22;24531;45.502;12.238;2023-02-15T01:01:17;8.00;92.10
38784;DHT22;24531;45.502;12.238;2023-02-15T01:03:43;7.90;92.10
38784;DHT22;24531;45.502;12.238;2023-02-15T01:06:10;7.90;92.30
38784;DHT22;24531;45.502;12.238;2023-02-15T01:08:36;7.80;92.10
38784;DHT22;24531;45.502;12.238;2023-02-15T01:11:11;7.90;92.20
38784;DHT22;24531;45.502;12.238;2023-02-15T01:13:37;7.80;92.20
38784;DHT22;24531;45.502;12.238;2023-02-15T01:16:03;7.80;92.20
38784;DHT22;24531;45.502;12.238;2023-02-15T01:18:29;7.80;92.20
38784;DHT22;24531;45.502;12.238;2023-02-15T01:20:55;7.80;92.10
38784;DHT22;24531;45.502;12.238;2023-02-15T01:23:21;7.90;92.10
38784;DHT22;24531;45.502;12.238;2023-02-15T01:25:47;7.80;92.00
38784;DHT22;24531;45.502;12.238;2023-02-15T01:28:13;7.70;92.00
38784;DHT22;24531;45.502;12.238;2023-02-15T01:30:39;7.70;92.10
38784;DHT22;24531;45.502;12.238;2023-02-15T01:33:05;7.70;92.20
38784;DHT22;24531;45.502;12.238;2023-02-15T01:35:31;7.70;92.20
38784;DHT22;24531;45.502;12.238;2023-02-15T01:37:57;7.70;92.10
38784;DHT22;24531;45.502;12.238;2023-02-15T01:40:23;7.70;92.00
38784;DHT22;24531;45.502;12.238;2023-02-15T01:42:53;7.80;92.10
38784;DHT22;24531;45.502;12.238;2023-02-15T01:45:25;7.70;92.10
38784;DHT22;24531;45.502;12.238;2023-02-15T01:47:56;7.70;92.10
38784;DHT22;24531;45.502;12.238;2023-02-15T01:50:38;7.60;92.10
38784;DHT22;24531;45.502;12.238;2023-02-15T01:53:24;7.60;92.00
38784;DHT22;24531;45.502;12.238;2023-02-15T01:55:58;7.60;92.10
38784;DHT22;24531;45.502;12.238;2023-02-15T01:58:26;7.60;92.00
38784;DHT22;24531;45.502;12.238;2023-02-15T02:00:54;7.60;92.00
38784;DHT22;24531;45.502;12.238;2023-02-15T02:03:35;7.60;92.00
38784;DHT22;24531;45.502;12.238;2023-02-15T02:06:04;7.60;92.00
38784;DHT22;24531;45.502;12.238;2023-02-15T02:08:30;7.60;92.00
38784;DHT22;24531;45.502;12.238;2023-02-15T02:10:56;7.70;92.10
38784;DHT22;24531;45.502;12.238;2023-02-15T02:13:22;7.60;92.10
38784;DHT22;24531;45.502;12.238;2023-02-15T02:22:01;7.60;92.00
38784;DHT22;24531;45.502;12.238;2023-02-15T02:25:44;7.50;92.10
38784;DHT22;24531;45.502;12.238;2023-02-15T02:30:40;7.40;92.20
38784;DHT22;24531;45.502;12.238;2023-02-15T02:33:34;7.40;92.20
38784;DHT22;24531;45.502;12.238;2023-02-15T02:44:23;7.40;92.20
38784;DHT22;24531;45.502;12.238;2023-02-15T02:47:08;7.40;92.10
38784;DHT22;24531;45.502;12.238;2023-02-15T02:49:40;7.30;92.20
38784;DHT22;24531;45.502;12.238;2023-02-15T02:55:03;7.30;92.20
38784;DHT22;24531;45.502;12.238;2023-02-15T02:57:32;7.30;92.20
38784;DHT22;24531;45.502;12.238;2023-02-15T02:59:59;7.30;92.10
38784;DHT22;24531;45.502;12.238;2023-02-15T03:02:32;7.20;92.50
38784;DHT22;24531;45.502;12.238;2023-02-15T03:05:03;7.30;92.20
38784;DHT22;24531;45.502;12.238;2023-02-15T03:07:32;7.20;92.10
38784;DHT22;24531;45.502;12.238;2023-02-15T03:10:00;7.40;92.20
38784;DHT22;24531;45.502;12.238;2023-02-15T03:12:35;7.30;92.20
38784;DHT22;24531;45.502;12.238;2023-02-15T03:15:24;7.20;92.20
38784;DHT22;24531;45.502;12.238;2023-02-15T03:18:00;7.20;92.20
38784;DHT22;24531;45.502;12.238;2023-02-15T03:20:33;7.30;92.20
38784;DHT22;24531;45.502;12.238;2023-02-15T03:23:19;7.20;92.20
38784;DHT22;24531;45.502;12.238;2023-02-15T03:26:06;7.20;92.20
38784;DHT22;24531;45.502;12.238;2023-02-15T03:31:01;7.20;92.10
38784;DHT22;24531;45.502;12.238;2023-02-15T03:33:28;7.20;92.10
38784;DHT22;24531;45.502;12.238;2023-02-15T03:36:02;7.20;92.20
38784;DHT22;24531;45.502;12.238;2023-02-15T03:38:36;7.10;92.10
38784;DHT22;24531;45.502;12.238;2023-02-15T03:41:06;7.10;92.20
38784;DHT22;24531;45.502;12.238;2023-02-15T03:43:59;7.20;92.20
38784;DHT22;24531;45.502;12.238;2023-02-15T03:46:29;7.10;92.10
38784;DHT22;24531;45.502;12.238;2023-02-15T03:49:10;7.20;92.10
38784;DHT22;24531;45.502;12.238;2023-02-15T03:51:40;7.10;92.00
38784;DHT22;24531;45.502;12.238;2023-02-15T03:54:18;7.10;92.00
38784;DHT22;24531;45.502;12.238;2023-02-15T03:57:05;7.20;92.10
38784;DHT22;24531;45.502;12.238;2023-02-15T03:59:50;7.00;92.00
38784;DHT22;24531;45.502;12.238;2023-02-15T04:03:39;7.10;92.10
38784;DHT22;24531;45.502;12.238;2023-02-15T04:05:39;7.00;92.00
38784;DHT22;24531;45.502;12.238;2023-02-15T04:08:05;7.00;92.10
38784;DHT22;24531;45.502;12.238;2023-02-15T04:10:31;7.00;92.10
38784;DHT22;24531;45.502;12.238;2023-02-15T04:13:16;6.90;92.10
38784;DHT22;24531;45.502;12.238;2023-02-15T04:15:41;6.90;92.00
38784;DHT22;24531;45.502;12.238;2023-02-15T04:18:25;6.90;92.10
38784;DHT22;24531;45.502;12.238;2023-02-15T04:21:09;6.90;92.10
38784;DHT22;24531;45.502;12.238;2023-02-15T04:23:53;7.00;92.00
38784;DHT22;24531;45.502;12.238;2023-02-15T04:26:37;6.90;92.00
38784;DHT22;24531;45.502;12.238;2023-02-15T04:29:03;6.90;92.00
38784;DHT22;24531;45.502;12.238;2023-02-15T04:31:28;6.90;92.00
38784;DHT22;24531;45.502;12.238;2023-02-15T04:33:54;6.80;92.00
38784;DHT22;24531;45.502;12.238;2023-02-15T04:36:19;6.90;92.00
38784;DHT22;24531;45.502;12.238;2023-02-15T04:38:45;6.80;92.00
38784;DHT22;24531;45.502;12.238;2023-02-15T04:41:11;6.90;92.10
38784;DHT22;24531;45.502;12.238;2023-02-15T04:43:38;6.90;92.00
38784;DHT22;24531;45.502;12.238;2023-02-15T04:46:04;7.10;92.10
38784;DHT22;24531;45.502;12.238;2023-02-15T04:48:30;6.90;92.10
38784;DHT22;24531;45.502;12.238;2023-02-15T04:50:55;7.00;92.10
38784;DHT22;24531;45.502;12.238;2023-02-15T04:53:21;6.90;92.00
38784;DHT22;24531;45.502;12.238;2023-02-15T04:55:47;6.90;92.10
38784;DHT22;24531;45.502;12.238;2023-02-15T04:58:12;6.80;92.10
38784;DHT22;24531;45.502;12.238;2023-02-15T05:00:38;6.80;92.10
38784;DHT22;24531;45.502;12.238;2023-02-15T05:03:04;6.80;92.10
38784;DHT22;24531;45.502;12.238;2023-02-15T05:05:29;6.90;92.20
38784;DHT22;24531;45.502;12.238;2023-02-15T05:07:55;6.70;92.10
38784;DHT22;24531;45.502;12.238;2023-02-15T05:10:21;6.90;92.20
38784;DHT22;24531;45.502;12.238;2023-02-15T05:12:46;6.80;92.10
38784;DHT22;24531;45.502;12.238;2023-02-15T05:15:12;6.80;92.20
38784;DHT22;24531;45.502;12.238;2023-02-15T05:17:37;6.80;92.20
38784;DHT22;24531;45.502;12.238;2023-02-15T05:20:04;6.80;92.20
38784;DHT22;24531;45.502;12.238;2023-02-15T05:22:30;6.80;92.20
38784;DHT22;24531;45.502;12.238;2023-02-15T05:24:55;6.80;92.20
38784;DHT22;24531;45.502;12.238;2023-02-15T05:27:39;6.80;92.20
38784;DHT22;24531;45.502;12.238;2023-02-15T05:30:23;6.90;92.20
38784;DHT22;24531;45.502;12.238;2023-02-15T05:32:49;6.90;92.10
38784;DHT22;24531;45.502;12.238;2023-02-15T05:35:15;6.80;92.10
38784;DHT22;24531;45.502;12.238;2023-02-15T05:37:41;6.80;92.20
38784;DHT22;24531;45.502;12.238;2023-02-15T05:40:07;6.70;92.20
38784;DHT22;24531;45.502;12.238;2023-02-15T05:42:33;6.70;92.20
38784;DHT22;24531;45.502;12.238;2023-02-15T05:44:59;6.80;92.30
38784;DHT22;24531;45.502;12.238;2023-02-15T05:47:24;6.70;92.20
38784;DHT22;24531;45.502;12.238;2023-02-15T05:49:50;6.70;92.20
38784;DHT22;24531;45.502;12.238;2023-02-15T05:52:16;6.70;92.30
38784;DHT22;24531;45.502;12.238;2023-02-15T05:54:41;6.70;92.20
38784;DHT22;24531;45.502;12.238;2023-02-15T05:57:07;6.80;92.20
38784;DHT22;24531;45.502;12.238;2023-02-15T05:59:33;6.70;92.20
38784;DHT22;24531;45.502;12.238;2023-02-15T06:01:58;6.60;92.20
38784;DHT22;24531;45.502;12.238;2023-02-15T06:04:24;6.70;92.20
38784;DHT22;24531;45.502;12.238;2023-02-15T06:06:49;6.70;92.10
38784;DHT22;24531;45.502;12.238;2023-02-15T06:09:15;6.60;92.20
38784;DHT22;24531;45.502;12.238;2023-02-15T06:11:44;6.70;92.20
38784;DHT22;24531;45.502;12.238;2023-02-15T06:14:10;6.70;92.20
38784;DHT22;24531;45.502;12.238;2023-02-15T06:16:36;6.60;92.10
38784;DHT22;24531;45.502;12.238;2023-02-15T06:19:02;6.60;92.10
38784;DHT22;24531;45.502;12.238;2023-02-15T06:21:29;6.80;92.20
38784;DHT22;24531;45.502;12.238;2023-02-15T06:23:55;6.60;92.20
38784;DHT22;24531;45.502;12.238;2023-02-15T06:26:20;6.60;92.20
38784;DHT22;24531;45.502;12.238;2023-02-15T06:28:46;6.60;92.30
38784;DHT22;24531;45.502;12.238;2023-02-15T06:31:11;6.60;92.20
38784;DHT22;24531;45.502;12.238;2023-02-15T06:33:37;6.60;92.20
38784;DHT22;24531;45.502;12.238;2023-02-15T06:36:03;6.60;92.20
38784;DHT22;24531;45.502;12.238;2023-02-15T06:38:29;6.60;92.20
38784;DHT22;24531;45.502;12.238;2023-02-15T06:40:55;6.60;92.20
38784;DHT22;24531;45.502;12.238;2023-02-15T06:43:20;6.60;92.30
38784;DHT22;24531;45.502;12.238;2023-02-15T06:45:46;6.60;92.30
38784;DHT22;24531;45.502;12.238;2023-02-15T06:48:11;6.70;92.40
38784;DHT22;24531;45.502;12.238;2023-02-15T06:50:37;6.90;92.40
38784;DHT22;24531;45.502;12.238;2023-02-15T06:53:03;6.90;92.40
38784;DHT22;24531;45.502;12.238;2023-02-15T06:55:29;7.00;92.30
38784;DHT22;24531;45.502;12.238;2023-02-15T06:57:54;7.10;92.40
38784;DHT22;24531;45.502;12.238;2023-02-15T07:00:20;7.10;92.40
38784;DHT22;24531;45.502;12.238;2023-02-15T07:02:52;7.20;92.40
38784;DHT22;24531;45.502;12.238;2023-02-15T07:05:20;8.00;92.70
38784;DHT22;24531;45.502;12.238;2023-02-15T07:07:46;7.50;92.50
38784;DHT22;24531;45.502;12.238;2023-02-15T07:10:11;7.70;92.60
38784;DHT22;24531;45.502;12.238;2023-02-15T07:12:37;7.80;92.60
38784;DHT22;24531;45.502;12.238;2023-02-15T07:15:15;8.80;92.70
38784;DHT22;24531;45.502;12.238;2023-02-15T07:17:41;8.10;92.50
38784;DHT22;24531;45.502;12.238;2023-02-15T07:20:13;8.30;92.50
38784;DHT22;24531;45.502;12.238;2023-02-15T07:22:40;8.60;92.60
38784;DHT22;24531;45.502;12.238;2023-02-15T07:25:07;9.00;92.60
38784;DHT22;24531;45.502;12.238;2023-02-15T07:27:33;9.40;92.70
38784;DHT22;24531;45.502;12.238;2023-02-15T07:29:59;9.90;92.70
38784;DHT22;24531;45.502;12.238;2023-02-15T07:32:30;10.30;92.60
38784;DHT22;24531;45.502;12.238;2023-02-15T07:34:56;10.80;92.50
38784;DHT22;24531;45.502;12.238;2023-02-15T07:37:22;11.30;92.40
38784;DHT22;24531;45.502;12.238;2023-02-15T07:39:48;11.70;92.40
38784;DHT22;24531;45.502;12.238;2023-02-15T07:42:14;12.10;92.10
38784;DHT22;24531;45.502;12.238;2023-02-15T07:44:39;12.50;92.00
38784;DHT22;24531;45.502;12.238;2023-02-15T07:47:05;12.90;91.80
38784;DHT22;24531;45.502;12.238;2023-02-15T07:49:31;13.30;91.60
38784;DHT22;24531;45.502;12.238;2023-02-15T07:51:56;13.70;91.40
38784;DHT22;24531;45.502;12.238;2023-02-15T07:54:22;14.00;91.30
38784;DHT22;24531;45.502;12.238;2023-02-15T07:56:48;14.50;91.20
38784;DHT22;24531;45.502;12.238;2023-02-15T07:59:13;14.90;90.80
38784;DHT22;24531;45.502;12.238;2023-02-15T08:01:39;15.20;90.60
38784;DHT22;24531;45.502;12.238;2023-02-15T08:04:06;15.50;90.30
38784;DHT22;24531;45.502;12.238;2023-02-15T08:06:35;15.80;90.00
38784;DHT22;24531;45.502;12.238;2023-02-15T08:09:04;16.10;89.40
38784;DHT22;24531;45.502;12.238;2023-02-15T08:11:32;16.40;88.90
38784;DHT22;24531;45.502;12.238;2023-02-15T08:14:02;16.60;88.40
38784;DHT22;24531;45.502;12.238;2023-02-15T08:16:39;16.90;87.70
38784;DHT22;24531;45.502;12.238;2023-02-15T08:19:15;17.00;86.90
38784;DHT22;24531;45.502;12.238;2023-02-15T08:21:43;17.00;86.90
38784;DHT22;24531;45.502;12.238;2023-02-15T08:24:10;17.10;86.30
38784;DHT22;24531;45.502;12.238;2023-02-15T08:26:37;16.60;85.30
38784;DHT22;24531;45.502;12.238;2023-02-15T08:29:04;16.00;85.20
38784;DHT22;24531;45.502;12.238;2023-02-15T08:31:32;15.40;85.00
38784;DHT22;24531;45.502;12.238;2023-02-15T08:33:58;14.90;85.30
38784;DHT22;24531;45.502;12.238;2023-02-15T08:36:27;14.50;85.40
38784;DHT22;24531;45.502;12.238;2023-02-15T08:38:54;14.10;85.50
38784;DHT22;24531;45.502;12.238;2023-02-15T08:41:22;13.90;85.70
38784;DHT22;24531;45.502;12.238;2023-02-15T08:43:52;13.70;85.80
38784;DHT22;24531;45.502;12.238;2023-02-15T08:46:19;13.60;85.80
38784;DHT22;24531;45.502;12.238;2023-02-15T08:48:46;13.40;85.80
38784;DHT22;24531;45.502;12.238;2023-02-15T08:51:21;13.30;85.90
38784;DHT22;24531;45.502;12.238;2023-02-15T08:53:50;13.30;86.00
38784;DHT22;24531;45.502;12.238;2023-02-15T08:56:18;13.30;85.90
38784;DHT22;24531;45.502;12.238;2023-02-15T08:58:44;13.30;86.00
38784;DHT22;24531;45.502;12.238;2023-02-15T09:01:15;13.30;85.80
38784;DHT22;24531;45.502;12.238;2023-02-15T09:03:46;13.40;85.80
38784;DHT22;24531;45.502;12.238;2023-02-15T09:06:13;13.40;85.60
38784;DHT22;24531;45.502;12.238;2023-02-15T09:08:39;13.40;85.60
38784;DHT22;24531;45.502;12.238;2023-02-15T09:11:14;13.40;85.30
38784;DHT22;24531;45.502;12.238;2023-02-15T09:13:42;13.30;85.40
38784;DHT22;24531;45.502;12.238;2023-02-15T09:16:08;13.40;85.50
38784;DHT22;24531;45.502;12.238;2023-02-15T09:18:37;13.40;85.60
38784;DHT22;24531;45.502;12.238;2023-02-15T09:21:10;13.50;85.30
38784;DHT22;24531;45.502;12.238;2023-02-15T09:23:39;13.70;85.90
38784;DHT22;24531;45.502;12.238;2023-02-15T09:26:07;14.90;87.00
38784;DHT22;24531;45.502;12.238;2023-02-15T09:28:34;16.70;86.80
38784;DHT22;24531;45.502;12.238;2023-02-15T09:31:17;18.40;85.40
38784;DHT22;24531;45.502;12.238;2023-02-15T09:33:45;19.90;83.00
38784;DHT22;24531;45.502;12.238;2023-02-15T09:38:40;22.30;79.50
38784;DHT22;24531;45.502;12.238;2023-02-15T09:44:11;22.70;76.30
38784;DHT22;24531;45.502;12.238;2023-02-15T09:50:08;20.30;75.80
38784;DHT22;24531;45.502;12.238;2023-02-15T09:56:02;18.60;76.60
38784;DHT22;24531;45.502;12.238;2023-02-15T10:07:11;17.00;77.30
38784;DHT22;24531;45.502;12.238;2023-02-15T10:12:44;16.60;77.40
38784;DHT22;24531;45.502;12.238;2023-02-15T10:15:23;16.50;77.30
38784;DHT22;24531;45.502;12.238;2023-02-15T10:18:03;16.40;77.80
38784;DHT22;24531;45.502;12.238;2023-02-15T10:20:52;16.30;77.60
38784;DHT22;24531;45.502;12.238;2023-02-15T10:24:42;16.10;77.30
38784;DHT22;24531;45.502;12.238;2023-02-15T10:26:45;16.10;77.60
38784;DHT22;24531;45.502;12.238;2023-02-15T10:31:50;16.00;77.40
38784;DHT22;24531;45.502;12.238;2023-02-15T10:34:29;15.90;77.30
38784;DHT22;24531;45.502;12.238;2023-02-15T10:42:41;15.80;77.60
38784;DHT22;24531;45.502;12.238;2023-02-15T10:45:32;15.80;77.60
38784;DHT22;24531;45.502;12.238;2023-02-15T10:50:53;15.70;77.60
38784;DHT22;24531;45.502;12.238;2023-02-15T10:59:20;15.60;77.10
38784;DHT22;24531;45.502;12.238;2023-02-15T11:02:11;15.60;77.30
38784;DHT22;24531;45.502;12.238;2023-02-15T11:05:02;15.60;77.10
38784;DHT22;24531;45.502;12.238;2023-02-15T11:07:39;15.70;77.10
38784;DHT22;24531;45.502;12.238;2023-02-15T11:10:30;15.70;77.10
38784;DHT22;24531;45.502;12.238;2023-02-15T11:12:58;15.70;77.10
38784;DHT22;24531;45.502;12.238;2023-02-15T11:15:38;15.70;76.90
38784;DHT22;24531;45.502;12.238;2023-02-15T11:20:59;15.70;76.70
38784;DHT22;24531;45.502;12.238;2023-02-15T11:23:27;15.80;76.70
38784;DHT22;24531;45.502;12.238;2023-02-15T11:26:04;15.80;76.50
38784;DHT22;24531;45.502;12.238;2023-02-15T11:28:59;15.80;76.30
38784;DHT22;24531;45.502;12.238;2023-02-15T11:31:29;15.80;76.20
38784;DHT22;24531;45.502;12.238;2023-02-15T11:34:01;15.80;76.00
38784;DHT22;24531;45.502;12.238;2023-02-15T11:36:33;15.80;76.10
38784;DHT22;24531;45.502;12.238;2023-02-15T11:39:09;15.80;76.10
38784;DHT22;24531;45.502;12.238;2023-02-15T11:41:38;15.80;76.30
38784;DHT22;24531;45.502;12.238;2023-02-15T11:46:36;15.90;76.40
38784;DHT22;24531;45.502;12.238;2023-02-15T11:49:02;15.90;76.30
38784;DHT22;24531;45.502;12.238;2023-02-15T11:51:29;15.90;76.90
38784;DHT22;24531;45.502;12.238;2023-02-15T11:53:56;15.90;76.10
38784;DHT22;24531;45.502;12.238;2023-02-15T11:56:23;15.90;76.00
38784;DHT22;24531;45.502;12.238;2023-02-15T11:58:59;16.00;75.80
38784;DHT22;24531;45.502;12.238;2023-02-15T12:01:35;16.00;75.70
38784;DHT22;24531;45.502;12.238;2023-02-15T12:04:28;16.00;75.50
38784;DHT22;24531;45.502;12.238;2023-02-15T12:12:31;16.10;75.30
38784;DHT22;24531;45.502;12.238;2023-02-15T12:15:08;16.10;75.80
38784;DHT22;24531;45.502;12.238;2023-02-15T12:17:54;16.10;75.00
38784;DHT22;24531;45.502;12.238;2023-02-15T12:20:21;16.20;74.90
38784;DHT22;24531;45.502;12.238;2023-02-15T12:22:54;16.20;74.80
38784;DHT22;24531;45.502;12.238;2023-02-15T12:25:21;16.20;74.60
38784;DHT22;24531;45.502;12.238;2023-02-15T12:27:47;16.30;74.70
38784;DHT22;24531;45.502;12.238;2023-02-15T12:30:22;16.30;74.70
38784;DHT22;24531;45.502;12.238;2023-02-15T12:32:54;16.30;74.70
38784;DHT22;24531;45.502;12.238;2023-02-15T12:35:29;16.30;74.70
38784;DHT22;24531;45.502;12.238;2023-02-15T12:38:40;16.30;75.60
38784;DHT22;24531;45.502;12.238;2023-02-15T12:40:40;16.40;74.80
38784;DHT22;24531;45.502;12.238;2023-02-15T12:43:26;16.40;74.70
38784;DHT22;24531;45.502;12.238;2023-02-15T12:45:52;16.40;74.90
38784;DHT22;24531;45.502;12.238;2023-02-15T12:48:19;16.40;74.90
38784;DHT22;24531;45.502;12.238;2023-02-15T12:50:49;16.40;74.90
38784;DHT22;24531;45.502;12.238;2023-02-15T12:53:20;16.40;74.60
38784;DHT22;24531;45.502;12.238;2023-02-15T12:55:56;16.30;74.50
38784;DHT22;24531;45.502;12.238;2023-02-15T13:03:37;16.30;74.20
38784;DHT22;24531;45.502;12.238;2023-02-15T13:06:04;16.30;74.00
38784;DHT22;24531;45.502;12.238;2023-02-15T13:08:59;16.30;74.10
38784;DHT22;24531;45.502;12.238;2023-02-15T13:11:31;16.30;73.90
38784;DHT22;24531;45.502;12.238;2023-02-15T13:14:02;16.40;73.90
38784;DHT22;24531;45.502;12.238;2023-02-15T13:16:34;16.30;73.90
38784;DHT22;24531;45.502;12.238;2023-02-15T13:19:12;16.40;73.90
38784;DHT22;24531;45.502;12.238;2023-02-15T13:21:40;16.40;74.00
38784;DHT22;24531;45.502;12.238;2023-02-15T13:26:41;16.40;74.10
38784;DHT22;24531;45.502;12.238;2023-02-15T13:29:36;16.40;74.20
38784;DHT22;24531;45.502;12.238;2023-02-15T13:32:37;16.40;74.30
38784;DHT22;24531;45.502;12.238;2023-02-15T13:35:00;16.40;74.40
38784;DHT22;24531;45.502;12.238;2023-02-15T13:40:11;16.40;74.60
38784;DHT22;24531;45.502;12.238;2023-02-15T13:42:41;16.30;74.80
38784;DHT22;24531;45.502;12.238;2023-02-15T13:45:36;16.30;74.90
38784;DHT22;24531;45.502;12.238;2023-02-15T13:51:10;16.30;75.20
38784;DHT22;24531;45.502;12.238;2023-02-15T14:07:23;16.10;75.20
38784;DHT22;24531;45.502;12.238;2023-02-15T14:15:46;16.00;75.00
38784;DHT22;24531;45.502;12.238;2023-02-15T14:21:31;16.00;75.10
38784;DHT22;24531;45.502;12.238;2023-02-15T14:29:47;16.10;75.00
38784;DHT22;24531;45.502;12.238;2023-02-15T14:32:30;16.10;75.20
38784;DHT22;24531;45.502;12.238;2023-02-15T14:35:00;16.10;75.20
38784;DHT22;24531;45.502;12.238;2023-02-15T14:48:55;16.10;74.80
38784;DHT22;24531;45.502;12.238;2023-02-15T14:54:07;16.10;74.70
38784;DHT22;24531;45.502;12.238;2023-02-15T14:56:33;16.10;74.70
38784;DHT22;24531;45.502;12.238;2023-02-15T14:59:13;16.00;74.90
38784;DHT22;24531;45.502;12.238;2023-02-15T15:01:40;16.00;74.90
38784;DHT22;24531;45.502;12.238;2023-02-15T15:04:12;16.00;74.90
38784;DHT22;24531;45.502;12.238;2023-02-15T15:06:41;16.00;74.80
38784;DHT22;24531;45.502;12.238;2023-02-15T15:09:27;15.90;74.80
38784;DHT22;24531;45.502;12.238;2023-02-15T15:12:12;15.90;74.80
38784;DHT22;24531;45.502;12.238;2023-02-15T15:14:40;15.90;75.60
38784;DHT22;24531;45.502;12.238;2023-02-15T15:17:09;15.90;75.30
38784;DHT22;24531;45.502;12.238;2023-02-15T15:22:18;15.80;75.00
38784;DHT22;24531;45.502;12.238;2023-02-15T15:27:46;15.70;75.20
38784;DHT22;24531;45.502;12.238;2023-02-15T15:32:43;15.60;75.30
38784;DHT22;24531;45.502;12.238;2023-02-15T15:46:24;15.60;75.60
38784;DHT22;24531;45.502;12.238;2023-02-15T15:49:06;15.60;75.80
38784;DHT22;24531;45.502;12.238;2023-02-15T15:51:34;15.60;75.80
38784;DHT22;24531;45.502;12.238;2023-02-15T15:54:02;15.50;75.90
38784;DHT22;24531;45.502;12.238;2023-02-15T15:56:32;15.50;76.00
38784;DHT22;24531;45.502;12.238;2023-02-15T15:59:02;15.40;76.20
38784;DHT22;24531;45.502;12.238;2023-02-15T16:01:38;15.30;76.40
38784;DHT22;24531;45.502;12.238;2023-02-15T16:04:05;15.30;76.60
38784;DHT22;24531;45.502;12.238;2023-02-15T16:08:56;15.20;77.10
38784;DHT22;24531;45.502;12.238;2023-02-15T16:11:24;15.20;77.30
38784;DHT22;24531;45.502;12.238;2023-02-15T16:13:51;15.10;77.40
38784;DHT22;24531;45.502;12.238;2023-02-15T16:16:28;15.10;77.60
38784;DHT22;24531;45.502;12.238;2023-02-15T16:18:57;15.00;77.60
38784;DHT22;24531;45.502;12.238;2023-02-15T16:21:31;15.00;77.80
38784;DHT22;24531;45.502;12.238;2023-02-15T16:29:53;14.70;78.40
38784;DHT22;24531;45.502;12.238;2023-02-15T16:32:23;14.80;78.60
38784;DHT22;24531;45.502;12.238;2023-02-15T16:35:00;14.70;78.70
38784;DHT22;24531;45.502;12.238;2023-02-15T16:37:32;14.70;79.00
38784;DHT22;24531;45.502;12.238;2023-02-15T16:39:58;14.70;79.10
38784;DHT22;24531;45.502;12.238;2023-02-15T16:42:24;14.60;80.10
38784;DHT22;24531;45.502;12.238;2023-02-15T16:45:08;14.50;79.40
38784;DHT22;24531;45.502;12.238;2023-02-15T16:47:41;14.50;79.70
38784;DHT22;24531;45.502;12.238;2023-02-15T16:50:18;14.40;79.70
38784;DHT22;24531;45.502;12.238;2023-02-15T16:52:44;14.30;79.80
38784;DHT22;24531;45.502;12.238;2023-02-15T16:55:20;14.20;80.00
38784;DHT22;24531;45.502;12.238;2023-02-15T16:57:47;14.10;80.20
38784;DHT22;24531;45.502;12.238;2023-02-15T17:00:22;14.10;80.40
38784;DHT22;24531;45.502;12.238;2023-02-15T17:05:21;13.90;80.80
38784;DHT22;24531;45.502;12.238;2023-02-15T17:10:29;13.80;81.20
38784;DHT22;24531;45.502;12.238;2023-02-15T17:13:01;13.70;81.10
38784;DHT22;24531;45.502;12.238;2023-02-15T17:17:58;13.60;81.40
38784;DHT22;24531;45.502;12.238;2023-02-15T17:20:24;13.50;81.50
38784;DHT22;24531;45.502;12.238;2023-02-15T17:22:51;13.50;81.70
38784;DHT22;24531;45.502;12.238;2023-02-15T17:25:20;13.40;81.90
38784;DHT22;24531;45.502;12.238;2023-02-15T17:27:51;13.40;82.00
38784;DHT22;24531;45.502;12.238;2023-02-15T17:30:26;13.30;82.10
38784;DHT22;24531;45.502;12.238;2023-02-15T17:32:57;13.20;82.30
38784;DHT22;24531;45.502;12.238;2023-02-15T17:35:28;13.20;82.30
38784;DHT22;24531;45.502;12.238;2023-02-15T17:38:18;13.20;83.20
38784;DHT22;24531;45.502;12.238;2023-02-15T17:40:44;13.10;82.60
38784;DHT22;24531;45.502;12.238;2023-02-15T17:43:09;13.00;82.50
38784;DHT22;24531;45.502;12.238;2023-02-15T17:45:39;13.00;82.80
38784;DHT22;24531;45.502;12.238;2023-02-15T17:48:12;12.90;83.00
38784;DHT22;24531;45.502;12.238;2023-02-15T17:50:41;12.90;82.90
38784;DHT22;24531;45.502;12.238;2023-02-15T17:53:08;12.90;83.00
38784;DHT22;24531;45.502;12.238;2023-02-15T17:55:34;12.80;83.10
38784;DHT22;24531;45.502;12.238;2023-02-15T17:58:00;12.70;83.40
38784;DHT22;24531;45.502;12.238;2023-02-15T18:00:26;12.70;83.60
38784;DHT22;24531;45.502;12.238;2023-02-15T18:03:11;12.70;83.80
38784;DHT22;24531;45.502;12.238;2023-02-15T18:05:57;12.60;83.90
38784;DHT22;24531;45.502;12.238;2023-02-15T18:08:41;12.60;84.00
38784;DHT22;24531;45.502;12.238;2023-02-15T18:11:26;12.60;84.10
38784;DHT22;24531;45.502;12.238;2023-02-15T18:14:08;12.50;84.10
38784;DHT22;24531;45.502;12.238;2023-02-15T18:16:40;12.50;84.30
38784;DHT22;24531;45.502;12.238;2023-02-15T18:19:26;12.40;84.40
38784;DHT22;24531;45.502;12.238;2023-02-15T18:21:52;12.40;84.60
38784;DHT22;24531;45.502;12.238;2023-02-15T18:24:24;12.40;84.50
38784;DHT22;24531;45.502;12.238;2023-02-15T18:26:54;12.30;84.70
38784;DHT22;24531;45.502;12.238;2023-02-15T18:29:20;12.30;84.90
38784;DHT22;24531;45.502;12.238;2023-02-15T18:31:50;12.30;85.10